Time;durP1;ratioP1;P1;durP2;ratioP2;P2;SDS_P1;SDS_P2;PMS_P1;PMS_P2;Temp;Humidity;BMP_temperature;BMP_pressure;BME280_temperature;BME280_humidity;BME280_pressure;Samples;Min_cycle;Max_cycle;Signal;HPM_P1;HPM_P2
2023/07/03 00:00:50;;;;;;;22.98;9.90;;;;;;;;;;2562141;23;19989;-94
2023/07/03 00:01:50;;;;;;;19.70;11.43;;;;;;;;;;2570285;23;19989;-93
2023/07/03 00:02:53;;;;;;;16.90;10.48;;;;;;;;;;2569914;23;20020;-93
2023/07/03 00:03:53;;;;;;;18.65;10.45;;;;;;;;;;2557887;23;19997;-93
2023/07/03 00:04:56;;;;;;;16.20;9.82;;;;;;;;;;2545053;23;20392;-93
2023/07/03 00:05:57;;;;;;;17.80;11.27;;;;;;;;;;2562433;23;19997;-94
2023/07/03 00:06:57;;;;;;;17.38;9.70;;;;;;;;;;2557406;23;20067;-93
2023/07/03 00:08:00;;;;;;;18.92;10.30;;;;;;;;;;2561705;23;19997;-94
2023/07/03 00:09:01;;;;;;;18.63;10.77;;;;;;;;;;2557994;23;20001;-93
2023/07/03 00:10:01;;;;;;;16.10;9.98;;;;;;;;;;2544914;23;20068;-93
2023/07/03 00:11:04;;;;;;;20.35;10.60;;;;;;;;;;2545246;23;19993;-93
2023/07/03 00:12:04;;;;;;;18.13;10.80;;;;;;;;;;2561871;23;20003;-93
2023/07/03 00:13:05;;;;;;;20.40;10.27;;;;;;;;;;2557203;23;20005;-93
2023/07/03 00:14:05;;;;;;;15.60;9.75;;;;;;;;;;2561494;23;20000;-93
2023/07/03 00:15:07;;;;;;;17.65;9.88;;;;;;;;;;2557304;23;19997;-93
2023/07/03 00:16:07;;;;;;;17.15;9.98;;;;;;;;;;2544888;23;19998;-91
2023/07/03 00:17:08;;;;;;;18.73;10.23;;;;;;;;;;2557629;23;20080;-93
2023/07/03 00:18:08;;;;;;;16.00;10.27;;;;;;;;;;2557013;23;20103;-93
2023/07/03 00:19:13;;;;;;;17.60;9.88;;;;;;;;;;2561780;23;19997;-93
2023/07/03 00:20:14;;;;;;;22.10;9.98;;;;;;;;;;2127097;23;10323657;-93
2023/07/03 00:21:14;;;;;;;18.98;9.85;;;;;;;;;;2557581;23;20430;-93
2023/07/03 00:22:15;;;;;;;16.55;9.45;;;;;;;;;;2561519;23;20431;-93
2023/07/03 00:23:18;;;;;;;16.13;9.30;;;;;;;;;;2562288;23;20085;-93
2023/07/03 00:24:18;;;;;;;17.00;9.65;;;;;;;;;;2557335;23;19997;-92
2023/07/03 00:25:19;;;;;;;15.48;9.23;;;;;;;;;;2561292;23;20072;-92
2023/07/03 00:26:19;;;;;;;20.00;10.48;;;;;;;;;;2558100;23;20000;-94
2023/07/03 00:27:21;;;;;;;15.30;9.93;;;;;;;;;;2557247;23;20008;-93
2023/07/03 00:28:21;;;;;;;16.90;9.70;;;;;;;;;;2544737;23;20009;-92
2023/07/03 00:29:24;;;;;;;15.54;9.68;;;;;;;;;;2108933;23;10294920;-92
2023/07/03 00:30:25;;;;;;;16.50;9.63;;;;;;;;;;2545473;23;20022;-92
2023/07/03 00:31:25;;;;;;;15.57;9.07;;;;;;;;;;2546172;23;20467;-94
2023/07/03 00:32:28;;;;;;;21.23;9.45;;;;;;;;;;2544928;23;19997;-93
2023/07/03 00:33:29;;;;;;;14.60;9.38;;;;;;;;;;2545564;23;20380;-93
2023/07/03 00:34:29;;;;;;;16.10;9.27;;;;;;;;;;2563224;23;20036;-94
2023/07/03 00:35:29;;;;;;;15.43;8.57;;;;;;;;;;2561803;23;20032;-91
2023/07/03 00:36:30;;;;;;;16.90;9.45;;;;;;;;;;2550189;23;20132;-89
2023/07/03 00:37:33;;;;;;;15.27;8.85;;;;;;;;;;2565200;23;20028;-94
2023/07/03 00:38:36;;;;;;;17.92;9.20;;;;;;;;;;2563814;23;20391;-91
2023/07/03 00:39:36;;;;;;;13.60;8.43;;;;;;;;;;2557988;23;20042;-94
2023/07/03 00:40:37;;;;;;;15.60;9.60;;;;;;;;;;2545336;23;20020;-94
2023/07/03 00:41:40;;;;;;;18.33;9.60;;;;;;;;;;2546249;23;20000;-93
2023/07/03 00:42:41;;;;;;;14.10;8.68;;;;;;;;;;2561624;23;20000;-91
2023/07/03 00:43:42;;;;;;;11.98;8.32;;;;;;;;;;2560985;23;20431;-93
2023/07/03 00:44:42;;;;;;;19.38;8.80;;;;;;;;;;2563485;23;20005;-92
2023/07/03 00:45:43;;;;;;;12.88;8.13;;;;;;;;;;2558949;23;20008;-94
2023/07/03 00:46:47;;;;;;;17.42;9.60;;;;;;;;;;2545483;23;19997;-93
2023/07/03 00:47:49;;;;;;;14.23;8.75;;;;;;;;;;2545499;23;20402;-92
2023/07/03 00:48:52;;;;;;;18.38;8.88;;;;;;;;;;2545511;23;20410;-91
2023/07/03 00:49:53;;;;;;;13.98;8.23;;;;;;;;;;2546149;23;19990;-92
2023/07/03 00:50:54;;;;;;;19.33;9.10;;;;;;;;;;2545370;23;20475;-96
2023/07/03 00:51:57;;;;;;;15.07;9.52;;;;;;;;;;2557969;23;20063;-95
2023/07/03 00:53:01;;;;;;;15.95;9.45;;;;;;;;;;2574091;23;20312;-93
2023/07/03 00:54:04;;;;;;;16.40;9.70;;;;;;;;;;2557673;23;20001;-95
2023/07/03 00:55:06;;;;;;;18.83;8.95;;;;;;;;;;2546179;23;20016;-93
2023/07/03 00:56:07;;;;;;;18.00;9.38;;;;;;;;;;2545349;23;20036;-92
2023/07/03 00:57:12;;;;;;;14.38;8.95;;;;;;;;;;2561720;23;20100;-93
2023/07/03 00:58:12;;;;;;;15.90;9.88;;;;;;;;;;2562649;23;19997;-93
2023/07/03 00:59:13;;;;;;;19.60;9.95;;;;;;;;;;2562233;23;20408;-92
2023/07/03 01:00:17;;;;;;;16.00;9.38;;;;;;;;;;2557598;23;20004;-93
2023/07/03 01:01:43;;;;;;;15.65;9.48;;;;;;;;;;2561639;23;20072;-94
2023/07/03 01:03:00;;;;;;;15.57;9.05;;;;;;;;;;2557993;23;20020;-93
2023/07/03 01:04:07;;;;;;;18.00;9.23;;;;;;;;;;2562455;23;20087;-92
2023/07/03 01:05:27;;;;;;;15.15;9.65;;;;;;;;;;2557971;23;20076;-92
2023/07/03 01:06:33;;;;;;;20.45;9.25;;;;;;;;;;2548590;23;20072;-94
2023/07/03 01:07:39;;;;;;;15.70;10.25;;;;;;;;;;2546794;23;20063;-93
2023/07/03 01:08:42;;;;;;;15.02;9.00;;;;;;;;;;2561509;23;20428;-94
2023/07/03 01:09:54;;;;;;;16.13;10.27;;;;;;;;;;2556886;23;20001;-93
2023/07/03 01:10:55;;;;;;;15.50;9.60;;;;;;;;;;2547251;23;20436;-94
2023/07/03 01:11:57;;;;;;;18.38;8.82;;;;;;;;;;2544634;23;20001;-93
2023/07/03 01:13:07;;;;;;;15.60;8.68;;;;;;;;;;2556956;23;20391;-93
2023/07/03 01:14:12;;;;;;;16.75;9.27;;;;;;;;;;2562938;23;19997;-94
2023/07/03 01:15:24;;;;;;;16.67;9.40;;;;;;;;;;2574057;23;19996;-92
2023/07/03 01:16:24;;;;;;;20.17;10.65;;;;;;;;;;2563142;23;20351;-93
2023/07/03 01:17:28;;;;;;;15.30;9.27;;;;;;;;;;2557781;23;20001;-93
2023/07/03 01:18:28;;;;;;;20.67;10.18;;;;;;;;;;2557878;23;19993;-94
2023/07/03 01:19:33;;;;;;;16.48;9.38;;;;;;;;;;2557337;23;19997;-94
2023/07/03 01:20:51;;;;;;;14.02;8.98;;;;;;;;;;2545473;23;19997;-93
2023/07/03 01:21:58;;;;;;;15.50;9.68;;;;;;;;;;2548401;23;20444;-93
2023/07/03 01:23:13;;;;;;;17.60;9.05;;;;;;;;;;2546460;23;20101;-94
2023/07/03 01:24:25;;;;;;;15.63;8.20;;;;;;;;;;2548117;23;19997;-94
2023/07/03 01:25:27;;;;;;;16.65;9.68;;;;;;;;;;2563549;23;20431;-94
2023/07/03 01:26:35;;;;;;;15.43;9.20;;;;;;;;;;2557682;23;20059;-95
2023/07/03 01:27:40;;;;;;;15.10;8.60;;;;;;;;;;2563446;23;20100;-93
2023/07/03 01:28:43;;;;;;;14.50;9.48;;;;;;;;;;2557507;23;20001;-95
2023/07/03 01:29:47;;;;;;;16.88;8.38;;;;;;;;;;2545206;23;19998;-94
2023/07/03 01:30:50;;;;;;;14.68;9.18;;;;;;;;;;2545486;23;19989;-94
2023/07/03 01:31:51;;;;;;;18.30;9.68;;;;;;;;;;2546483;23;20068;-95
2023/07/03 01:32:54;;;;;;;16.40;9.18;;;;;;;;;;2545766;23;19994;-95
2023/07/03 01:33:57;;;;;;;15.30;9.23;;;;;;;;;;2544903;23;20067;-94
2023/07/03 01:35:03;;;;;;;17.80;8.85;;;;;;;;;;2561187;23;19993;-95
2023/07/03 01:36:05;;;;;;;16.88;9.25;;;;;;;;;;2556847;23;20001;-95
2023/07/03 01:37:06;;;;;;;15.02;9.07;;;;;;;;;;2544867;23;20004;-94
2023/07/03 01:38:08;;;;;;;17.17;8.75;;;;;;;;;;2544796;23;20032;-94
2023/07/03 01:39:08;;;;;;;15.80;9.50;;;;;;;;;;2544954;23;20005;-95
2023/07/03 01:40:12;;;;;;;17.77;8.82;;;;;;;;;;2544723;23;20519;-94
2023/07/03 01:41:17;;;;;;;16.75;9.38;;;;;;;;;;2561359;23;20060;-94
2023/07/03 01:42:21;;;;;;;15.95;8.27;;;;;;;;;;2562228;23;19996;-93
2023/07/03 01:43:22;;;;;;;15.15;9.18;;;;;;;;;;2557317;23;20102;-94
2023/07/03 01:44:23;;;;;;;12.48;8.13;;;;;;;;;;2561756;23;19996;-94
2023/07/03 01:45:23;;;;;;;16.70;8.77;;;;;;;;;;2564139;23;19989;-94
2023/07/03 01:46:24;;;;;;;13.60;8.88;;;;;;;;;;2553844;23;20009;-94
2023/07/03 01:47:24;;;;;;;15.18;9.15;;;;;;;;;;2552636;23;19993;-93
2023/07/03 01:48:25;;;;;;;13.36;7.90;;;;;;;;;;2113751;23;10262274;-93
2023/07/03 01:49:28;;;;;;;17.80;9.30;;;;;;;;;;2565479;23;20076;-93
2023/07/03 01:50:32;;;;;;;17.60;9.35;;;;;;;;;;2562979;23;19993;-93
2023/07/03 01:51:39;;;;;;;16.63;9.52;;;;;;;;;;2552595;23;20017;-93
2023/07/03 01:52:47;;;;;;;14.80;8.90;;;;;;;;;;2549822;23;19993;-92
2023/07/03 01:54:04;;;;;;;17.45;9.60;;;;;;;;;;2564003;23;19989;-93
2023/07/03 01:55:16;;;;;;;12.88;8.20;;;;;;;;;;2561679;23;20009;-93
2023/07/03 01:56:24;;;;;;;15.65;8.60;;;;;;;;;;2547959;23;19997;-92
2023/07/03 01:57:33;;;;;;;14.95;9.00;;;;;;;;;;2562202;23;20027;-93
2023/07/03 01:58:45;;;;;;;13.30;8.77;;;;;;;;;;2562522;23;19986;-94
2023/07/03 01:59:47;;;;;;;14.65;9.07;;;;;;;;;;2557604;23;19989;-93
2023/07/03 02:01:11;;;;;;;15.23;8.70;;;;;;;;;;2545140;23;20448;-93
2023/07/03 02:02:22;;;;;;;15.20;8.90;;;;;;;;;;2554186;23;20081;-94
2023/07/03 02:03:35;;;;;;;15.73;8.20;;;;;;;;;;2556447;23;20005;-94
2023/07/03 02:04:57;;;;;;;14.43;8.70;;;;;;;;;;2556617;23;19997;-94
2023/07/03 02:06:04;;;;;;;15.85;8.50;;;;;;;;;;1908412;23;10024031;-93
2023/07/03 02:07:07;;;;;;;14.05;8.05;;;;;;;;;;2544619;23;20002;-93
2023/07/03 02:08:09;;;;;;;16.27;8.50;;;;;;;;;;2548932;23;20091;-93
2023/07/03 02:09:13;;;;;;;12.27;7.82;;;;;;;;;;2548657;23;20036;-93
2023/07/03 02:10:14;;;;;;;14.07;8.70;;;;;;;;;;2564406;23;20119;-92
2023/07/03 02:11:19;;;;;;;16.17;8.85;;;;;;;;;;2572018;23;20024;-94
2023/07/03 02:12:19;;;;;;;15.55;8.10;;;;;;;;;;2557412;23;20024;-95
2023/07/03 02:13:23;;;;;;;14.48;8.65;;;;;;;;;;2544694;23;20424;-94
2023/07/03 02:14:24;;;;;;;13.43;7.97;;;;;;;;;;2547184;23;19997;-93
2023/07/03 02:15:26;;;;;;;15.07;8.90;;;;;;;;;;2557469;23;20021;-95
2023/07/03 02:16:30;;;;;;;15.57;8.40;;;;;;;;;;2557469;23;20023;-94
2023/07/03 02:17:30;;;;;;;14.38;8.40;;;;;;;;;;2560826;23;20071;-94
2023/07/03 02:18:34;;;;;;;13.88;8.02;;;;;;;;;;2556814;23;19997;-94
2023/07/03 02:19:35;;;;;;;14.90;8.20;;;;;;;;;;2546054;23;19989;-93
2023/07/03 02:20:36;;;;;;;15.55;8.75;;;;;;;;;;2544747;23;20080;-94
2023/07/03 02:21:36;;;;;;;16.30;8.32;;;;;;;;;;2557373;23;19997;-94
2023/07/03 02:22:37;;;;;;;12.85;7.55;;;;;;;;;;2556862;23;19993;-94
2023/07/03 02:23:40;;;;;;;12.55;8.38;;;;;;;;;;2560991;23;20042;-94
2023/07/03 02:24:40;;;;;;;15.00;8.05;;;;;;;;;;2557196;23;20021;-94
2023/07/03 02:25:43;;;;;;;15.77;7.88;;;;;;;;;;2557104;23;20000;-93
2023/07/03 02:26:43;;;;;;;12.82;7.43;;;;;;;;;;2557540;23;20006;-94
2023/07/03 02:27:44;;;;;;;13.98;8.02;;;;;;;;;;2544968;23;20388;-93
2023/07/03 02:28:45;;;;;;;15.02;8.50;;;;;;;;;;2544660;23;19997;-92
2023/07/03 02:29:47;;;;;;;17.17;8.30;;;;;;;;;;2545223;23;20487;-93
2023/07/03 02:30:47;;;;;;;15.35;8.07;;;;;;;;;;2544836;23;19989;-93
2023/07/03 02:31:53;;;;;;;17.35;8.27;;;;;;;;;;2561976;23;20404;-93
2023/07/03 02:32:54;;;;;;;16.08;8.23;;;;;;;;;;2557136;23;20020;-94
2023/07/03 02:33:59;;;;;;;15.55;8.50;;;;;;;;;;2544762;23;20026;-93
2023/07/03 02:34:59;;;;;;;11.95;7.43;;;;;;;;;;2550673;23;20002;-94
2023/07/03 02:36:04;;;;;;;13.48;8.80;;;;;;;;;;2561781;23;19997;-95
2023/07/03 02:37:09;;;;;;;12.65;7.57;;;;;;;;;;2563357;23;19993;-94
2023/07/03 02:38:14;;;;;;;15.60;8.00;;;;;;;;;;2561628;23;20058;-93
2023/07/03 02:39:15;;;;;;;13.20;8.18;;;;;;;;;;2557749;23;19996;-93
2023/07/03 02:40:16;;;;;;;19.63;8.30;;;;;;;;;;2545043;23;20431;-93
2023/07/03 02:41:21;;;;;;;23.73;10.27;;;;;;;;;;2544656;23;20009;-94
2023/07/03 02:42:21;;;;;;;13.35;7.63;;;;;;;;;;2545937;23;20021;-94
2023/07/03 02:43:23;;;;;;;14.55;7.90;;;;;;;;;;2544499;23;20147;-94
2023/07/03 02:44:26;;;;;;;13.55;8.10;;;;;;;;;;2558517;23;19993;-93
2023/07/03 02:45:26;;;;;;;13.38;7.75;;;;;;;;;;2557003;23;19997;-94
2023/07/03 02:46:29;;;;;;;14.93;7.82;;;;;;;;;;2544538;23;20009;-95
2023/07/03 02:47:35;;;;;;;14.23;8.48;;;;;;;;;;2546247;23;20347;-95
2023/07/03 02:48:35;;;;;;;13.93;8.68;;;;;;;;;;2545654;23;20014;-95
2023/07/03 02:49:38;;;;;;;12.48;7.85;;;;;;;;;;2545492;23;19998;-94
2023/07/03 02:50:41;;;;;;;13.63;8.85;;;;;;;;;;2545354;23;20023;-94
2023/07/03 02:51:42;;;;;;;13.57;7.90;;;;;;;;;;2545226;23;20004;-94
2023/07/03 02:52:44;;;;;;;15.38;7.35;;;;;;;;;;2545313;23;19998;-94
2023/07/03 02:53:47;;;;;;;14.23;8.02;;;;;;;;;;2545206;23;20057;-94
2023/07/03 02:54:50;;;;;;;17.38;8.80;;;;;;;;;;2545666;23;20002;-94
2023/07/03 02:55:54;;;;;;;16.48;8.50;;;;;;;;;;2545702;23;19997;-94
2023/07/03 02:56:54;;;;;;;14.35;8.45;;;;;;;;;;2545063;23;20428;-94
2023/07/03 02:57:55;;;;;;;14.20;8.05;;;;;;;;;;2545627;23;19994;-95
2023/07/03 02:58:56;;;;;;;14.23;8.68;;;;;;;;;;2556824;23;20075;-94
2023/07/03 02:59:56;;;;;;;13.70;8.13;;;;;;;;;;2569413;23;20005;-94
2023/07/03 03:00:57;;;;;;;14.20;8.30;;;;;;;;;;2544713;23;20102;-92
2023/07/03 03:02:00;;;;;;;14.02;7.95;;;;;;;;;;2545494;23;20005;-92
2023/07/03 03:03:01;;;;;;;14.70;8.35;;;;;;;;;;2561452;23;20110;-93
2023/07/03 03:04:02;;;;;;;18.15;8.73;;;;;;;;;;2557300;23;20001;-93
2023/07/03 03:05:03;;;;;;;14.23;8.52;;;;;;;;;;2562415;23;20009;-93
2023/07/03 03:06:03;;;;;;;14.15;7.78;;;;;;;;;;2561863;23;20001;-93
2023/07/03 03:07:04;;;;;;;13.88;8.27;;;;;;;;;;2556845;23;19993;-94
2023/07/03 03:08:05;;;;;;;13.95;8.40;;;;;;;;;;2558859;23;20427;-96
2023/07/03 03:09:06;;;;;;;14.55;8.80;;;;;;;;;;2573316;23;20039;-94
2023/07/03 03:10:07;;;;;;;14.32;8.40;;;;;;;;;;2557271;23;20331;-94
2023/07/03 03:11:08;;;;;;;14.18;8.23;;;;;;;;;;2544896;23;20081;-94
2023/07/03 03:12:09;;;;;;;14.73;8.35;;;;;;;;;;2544492;23;20407;-94
2023/07/03 03:13:09;;;;;;;12.00;8.35;;;;;;;;;;2544845;23;20072;-95
2023/07/03 03:14:10;;;;;;;11.98;7.75;;;;;;;;;;2544502;23;19998;-94
2023/07/03 03:15:11;;;;;;;14.95;8.82;;;;;;;;;;2561773;23;20486;-95
2023/07/03 03:16:19;;;;;;;13.90;8.23;;;;;;;;;;2556813;23;19997;-92
2023/07/03 03:17:21;;;;;;;14.75;8.40;;;;;;;;;;2557990;23;20388;-93
2023/07/03 03:18:24;;;;;;;13.55;8.25;;;;;;;;;;2556895;23;20008;-95
2023/07/03 03:19:25;;;;;;;13.60;8.50;;;;;;;;;;2545185;23;20397;-96
2023/07/03 03:20:26;;;;;;;17.95;9.00;;;;;;;;;;2561478;23;19993;-93
2023/07/03 03:21:26;;;;;;;15.18;8.32;;;;;;;;;;2556930;23;20079;-95
2023/07/03 03:22:27;;;;;;;15.75;9.10;;;;;;;;;;2556814;23;20063;-95
2023/07/03 03:23:28;;;;;;;16.63;9.25;;;;;;;;;;2557565;23;20079;-94
2023/07/03 03:24:29;;;;;;;15.18;8.90;;;;;;;;;;2544476;23;19997;-94
2023/07/03 03:25:29;;;;;;;15.15;8.43;;;;;;;;;;2557557;23;20072;-93
2023/07/03 03:26:30;;;;;;;14.30;8.23;;;;;;;;;;2556652;23;20520;-93
2023/07/03 03:27:31;;;;;;;16.23;8.80;;;;;;;;;;2544077;23;20106;-94
2023/07/03 03:28:31;;;;;;;12.43;8.50;;;;;;;;;;2560846;23;20033;-94
2023/07/03 03:29:33;;;;;;;13.75;8.93;;;;;;;;;;2556361;23;20000;-92
2023/07/03 03:30:36;;;;;;;14.80;8.68;;;;;;;;;;2544859;23;19998;-95
2023/07/03 03:31:37;;;;;;;14.10;8.15;;;;;;;;;;2544855;23;20000;-93
2023/07/03 03:32:39;;;;;;;15.63;8.02;;;;;;;;;;2557196;23;19996;-94
2023/07/03 03:33:39;;;;;;;14.40;8.82;;;;;;;;;;2562221;23;19999;-93
2023/07/03 03:34:39;;;;;;;15.15;9.13;;;;;;;;;;2556310;23;19993;-94
2023/07/03 03:35:41;;;;;;;17.85;8.75;;;;;;;;;;2544717;23;19998;-92
2023/07/03 03:36:42;;;;;;;17.48;8.90;;;;;;;;;;2544757;23;19994;-95
2023/07/03 03:37:43;;;;;;;12.75;8.68;;;;;;;;;;2561069;23;19992;-93
2023/07/03 03:38:46;;;;;;;15.95;9.27;;;;;;;;;;2556511;23;20021;-92
2023/07/03 03:39:49;;;;;;;13.73;8.80;;;;;;;;;;2561657;23;19993;-92
2023/07/03 03:40:56;;;;;;;14.32;9.82;;;;;;;;;;2557480;23;20107;-93
2023/07/03 03:41:59;;;;;;;15.13;9.38;;;;;;;;;;2545994;23;20021;-92
2023/07/03 03:43:01;;;;;;;16.65;9.35;;;;;;;;;;2545004;23;19997;-92
2023/07/03 03:44:01;;;;;;;13.48;8.35;;;;;;;;;;2544389;23;20029;-92
2023/07/03 03:45:03;;;;;;;14.32;8.40;;;;;;;;;;2560767;23;19996;-92
2023/07/03 03:46:09;;;;;;;18.88;8.48;;;;;;;;;;2557091;23;20025;-92
2023/07/03 03:47:09;;;;;;;11.90;7.65;;;;;;;;;;2545192;23;20064;-93
2023/07/03 03:48:09;;;;;;;13.75;9.02;;;;;;;;;;2557838;23;20060;-92
2023/07/03 03:49:13;;;;;;;13.98;9.10;;;;;;;;;;2561868;23;20064;-95
2023/07/03 03:50:13;;;;;;;18.05;8.65;;;;;;;;;;2556513;23;20351;-93
2023/07/03 03:51:14;;;;;;;12.30;8.15;;;;;;;;;;2560608;23;19993;-93
2023/07/03 03:52:14;;;;;;;15.63;8.88;;;;;;;;;;2561522;23;20080;-92
2023/07/03 03:53:15;;;;;;;14.18;8.10;;;;;;;;;;2556537;23;20111;-92
2023/07/03 03:54:16;;;;;;;16.33;9.23;;;;;;;;;;2560505;23;20424;-92
2023/07/03 03:55:16;;;;;;;16.10;9.20;;;;;;;;;;2569561;23;19997;-92
2023/07/03 03:56:22;;;;;;;17.88;9.70;;;;;;;;;;2573616;23;20092;-92
2023/07/03 03:57:22;;;;;;;13.80;8.50;;;;;;;;;;2561420;23;19997;-92
2023/07/03 03:58:23;;;;;;;15.10;9.13;;;;;;;;;;2561553;23;20060;-93
2023/07/03 03:59:23;;;;;;;18.08;8.32;;;;;;;;;;2556606;23;20474;-93
2023/07/03 04:00:24;;;;;;;12.65;8.07;;;;;;;;;;2544593;23;20404;-93
2023/07/03 04:01:24;;;;;;;15.80;9.65;;;;;;;;;;2544797;23;20304;-93
2023/07/03 04:02:25;;;;;;;12.65;7.97;;;;;;;;;;2119362;23;10276363;-93
2023/07/03 04:03:28;;;;;;;16.02;8.27;;;;;;;;;;2556233;23;20001;-93
2023/07/03 04:04:28;;;;;;;15.40;8.32;;;;;;;;;;2556704;23;19997;-93
2023/07/03 04:05:29;;;;;;;15.20;8.63;;;;;;;;;;2560789;23;19996;-94
2023/07/03 04:06:32;;;;;;;12.68;8.27;;;;;;;;;;2562364;23;19993;-93
2023/07/03 04:07:32;;;;;;;14.50;9.48;;;;;;;;;;2544176;23;20052;-94
2023/07/03 04:08:35;;;;;;;15.90;9.93;;;;;;;;;;2531740;23;20448;-93
2023/07/03 04:09:36;;;;;;;15.00;9.60;;;;;;;;;;2561105;23;20374;-93
2023/07/03 04:10:36;;;;;;;13.05;8.18;;;;;;;;;;2556504;23;19989;-94
2023/07/03 04:11:37;;;;;;;13.20;8.20;;;;;;;;;;2544337;23;20504;-94
2023/07/03 04:12:40;;;;;;;20.00;8.73;;;;;;;;;;2545182;23;20017;-94
2023/07/03 04:13:40;;;;;;;13.27;8.07;;;;;;;;;;2545351;23;20001;-93
2023/07/03 04:14:48;;;;;;;12.98;7.68;;;;;;;;;;2545633;23;20032;-95
2023/07/03 04:15:53;;;;;;;11.02;7.50;;;;;;;;;;2557856;23;20020;-94
2023/07/03 04:16:57;;;;;;;12.80;7.88;;;;;;;;;;2557718;23;19993;-92
2023/07/03 04:18:01;;;;;;;17.70;8.32;;;;;;;;;;2561753;23;19997;-93
2023/07/03 04:19:07;;;;;;;13.30;7.75;;;;;;;;;;2559711;23;20044;-94
2023/07/03 04:20:10;;;;;;;12.30;8.10;;;;;;;;;;2550124;23;20048;-94
2023/07/03 04:21:13;;;;;;;11.55;7.93;;;;;;;;;;2545585;23;19997;-95
2023/07/03 04:22:13;;;;;;;14.60;7.90;;;;;;;;;;2562197;23;20001;-94
2023/07/03 04:23:15;;;;;;;13.13;8.40;;;;;;;;;;2558203;23;20001;-93
2023/07/03 04:24:24;;;;;;;13.80;8.02;;;;;;;;;;2545601;23;20001;-93
2023/07/03 04:25:28;;;;;;;11.23;7.82;;;;;;;;;;2551058;23;20408;-93
2023/07/03 04:26:40;;;;;;;14.23;8.55;;;;;;;;;;2547755;23;20021;-96
2023/07/03 04:27:40;;;;;;;14.52;8.80;;;;;;;;;;2549707;23;20021;-96
2023/07/03 04:28:43;;;;;;;18.25;8.98;;;;;;;;;;2545401;23;20103;-96
2023/07/03 04:29:55;;;;;;;14.70;7.82;;;;;;;;;;2547531;23;20011;-95
2023/07/03 04:30:58;;;;;;;12.55;8.77;;;;;;;;;;2548088;23;20420;-96
2023/07/03 04:31:59;;;;;;;12.68;8.13;;;;;;;;;;2547613;23;19997;-96
2023/07/03 04:33:07;;;;;;;19.38;7.60;;;;;;;;;;2557530;23;20419;-95
2023/07/03 04:34:10;;;;;;;13.85;7.28;;;;;;;;;;2574557;23;19992;-96
2023/07/03 04:35:10;;;;;;;13.85;7.47;;;;;;;;;;2558727;23;20028;-96
2023/07/03 04:36:12;;;;;;;13.70;7.60;;;;;;;;;;2545619;23;20006;-96
2023/07/03 04:37:20;;;;;;;13.40;7.90;;;;;;;;;;2546647;23;20016;-96
2023/07/03 04:38:28;;;;;;;11.65;7.90;;;;;;;;;;2546685;23;20032;-96
2023/07/03 04:39:32;;;;;;;15.15;8.00;;;;;;;;;;2551348;23;20017;-96
2023/07/03 04:40:33;;;;;;;11.77;7.25;;;;;;;;;;2546382;23;20300;-96
2023/07/03 04:41:36;;;;;;;16.48;7.32;;;;;;;;;;2557747;23;20008;-96
2023/07/03 04:42:39;;;;;;;12.95;7.53;;;;;;;;;;2560578;23;19993;-96
2023/07/03 04:43:44;;;;;;;12.60;6.55;;;;;;;;;;2554266;23;19993;-92
2023/07/03 04:44:47;;;;;;;14.15;6.90;;;;;;;;;;2548059;23;19998;-91
2023/07/03 04:45:51;;;;;;;12.20;7.35;;;;;;;;;;2548650;23;20090;-96
2023/07/03 04:46:55;;;;;;;10.48;6.65;;;;;;;;;;2559797;23;20001;-96
2023/07/03 04:47:57;;;;;;;12.90;7.40;;;;;;;;;;2564047;23;19997;-96
2023/07/03 04:49:04;;;;;;;9.50;6.72;;;;;;;;;;2557797;23;19993;-93
2023/07/03 04:50:16;;;;;;;12.68;7.15;;;;;;;;;;2565179;23;20406;-96
2023/07/03 04:51:20;;;;;;;13.10;7.00;;;;;;;;;;2559260;23;20015;-96
2023/07/03 04:52:36;;;;;;;11.20;6.97;;;;;;;;;;2548802;23;19993;-96
2023/07/03 04:53:50;;;;;;;12.70;6.35;;;;;;;;;;2565730;23;20363;-96
2023/07/03 04:54:50;;;;;;;10.63;6.90;;;;;;;;;;2560415;23;20036;-96
2023/07/03 04:55:51;;;;;;;11.18;6.90;;;;;;;;;;2561452;23;20004;-96
2023/07/03 04:56:55;;;;;;;10.50;6.28;;;;;;;;;;2564556;23;19993;-95
2023/07/03 04:58:05;;;;;;;13.32;7.05;;;;;;;;;;2563712;23;20017;-94
2023/07/03 04:59:12;;;;;;;12.30;6.90;;;;;;;;;;2570011;23;20003;-95
2023/07/03 05:00:21;;;;;;;9.27;6.78;;;;;;;;;;2562710;23;20093;-96
2023/07/03 05:01:29;;;;;;;12.30;6.90;;;;;;;;;;2562270;23;20012;-96
2023/07/03 05:02:32;;;;;;;11.20;6.70;;;;;;;;;;2547917;23;20006;-96
2023/07/03 05:03:41;;;;;;;13.10;6.75;;;;;;;;;;2548065;23;20092;-96
2023/07/03 05:32:28;;;;;;;9.43;7.25;;;;;;;;;;2565439;23;20021;-96
2023/07/03 05:33:32;;;;;;;9.27;6.70;;;;;;;;;;2545684;23;20013;-96
2023/07/03 05:34:33;;;;;;;8.18;6.18;;;;;;;;;;2538331;23;19998;-95
2023/07/03 05:40:12;;;;;;;11.75;7.80;;;;;;;;;;2545705;23;20010;-96
2023/07/03 05:41:22;;;;;;;10.40;6.95;;;;;;;;;;2526615;23;20065;-96
2023/07/03 05:42:33;;;;;;;;;;;;;;;;;;;;;
2023/07/03 05:44:50;;;;;;;9.73;7.25;;;;;;;;;;2585043;22;20075;-96
2023/07/03 05:45:54;;;;;;;11.48;7.82;;;;;;;;;;2586098;23;19980;-95
2023/07/03 05:47:19;;;;;;;10.88;7.45;;;;;;;;;;2590502;23;20035;-96
2023/07/03 05:48:25;;;;;;;14.13;7.43;;;;;;;;;;2573520;23;20004;-96
2023/07/03 05:49:28;;;;;;;12.23;7.55;;;;;;;;;;2576851;23;20059;-96
2023/07/03 05:50:31;;;;;;;11.38;7.93;;;;;;;;;;2571883;23;20004;-96
2023/07/03 05:51:31;;;;;;;12.52;7.85;;;;;;;;;;2571530;23;20058;-96
2023/07/03 05:52:43;;;;;;;12.10;7.40;;;;;;;;;;2572547;23;20067;-96
2023/07/03 05:53:56;;;;;;;12.23;7.55;;;;;;;;;;2575383;23;20496;-96
2023/07/03 05:54:58;;;;;;;10.88;7.03;;;;;;;;;;2576585;23;20000;-96
2023/07/03 05:56:02;;;;;;;11.27;7.22;;;;;;;;;;2560675;23;19993;-96
2023/07/03 05:57:26;;;;;;;11.27;7.50;;;;;;;;;;2577562;23;19997;-96
2023/07/03 05:58:33;;;;;;;10.50;7.35;;;;;;;;;;2569844;23;19993;-96
2023/07/03 05:59:48;;;;;;;10.52;7.75;;;;;;;;;;2562127;23;20074;-96
2023/07/03 06:00:50;;;;;;;11.77;9.20;;;;;;;;;;2576406;23;19988;-94
2023/07/03 06:01:58;;;;;;;12.40;7.63;;;;;;;;;;2586655;23;20054;-94
2023/07/03 06:03:04;;;;;;;9.95;7.80;;;;;;;;;;2573312;23;20446;-92
2023/07/03 06:04:05;;;;;;;13.05;6.90;;;;;;;;;;2570437;23;20003;-93
2023/07/03 06:05:09;;;;;;;11.35;7.55;;;;;;;;;;2586367;23;20002;-94
2023/07/03 06:06:15;;;;;;;10.63;7.30;;;;;;;;;;2586961;23;20018;-94
2023/07/03 06:07:16;;;;;;;10.57;7.53;;;;;;;;;;2573705;23;19997;-94
2023/07/03 06:08:16;;;;;;;8.95;7.03;;;;;;;;;;2556648;23;20005;-94
2023/07/03 06:09:17;;;;;;;12.40;7.95;;;;;;;;;;2558712;23;20004;-93
2023/07/03 06:10:17;;;;;;;12.85;8.60;;;;;;;;;;2574800;23;20031;-96
2023/07/03 06:11:18;;;;;;;9.82;8.23;;;;;;;;;;2586818;23;19996;-94
2023/07/03 06:12:29;;;;;;;11.05;8.13;;;;;;;;;;2586669;23;19996;-94
2023/07/03 06:13:29;;;;;;;10.75;7.88;;;;;;;;;;2573815;23;20000;-93
2023/07/03 06:14:31;;;;;;;11.75;8.35;;;;;;;;;;2572202;23;20060;-94
2023/07/03 06:15:34;;;;;;;10.32;7.82;;;;;;;;;;2587021;23;20083;-93
2023/07/03 06:16:58;;;;;;;11.18;7.70;;;;;;;;;;2592123;23;19988;-94
2023/07/03 06:17:59;;;;;;;10.48;8.27;;;;;;;;;;2572009;23;20003;-94
2023/07/03 06:19:01;;;;;;;11.25;8.05;;;;;;;;;;2573987;23;20004;-92
2023/07/03 06:20:03;;;;;;;16.30;13.23;;;;;;;;;;2142800;23;10257515;-92
2023/07/03 06:22:42;;;;;;;10.88;8.18;;;;;;;;;;2535764;23;20084;-93
2023/07/03 06:23:52;;;;;;;;;;;;;;;;;;;;;
2023/07/03 06:24:53;;;;;;;;;;;;;;;;;;2585922;23;19992;-94
2023/07/03 06:27:20;;;;;;;13.30;8.15;;;;;;;;;;2552876;23;20556;-93
2023/07/03 06:28:20;;;;;;;10.77;7.63;;;;;;;;;;2561160;23;20004;-93
2023/07/03 06:29:21;;;;;;;16.92;10.60;;;;;;;;;;2556564;23;19997;-94
2023/07/03 06:30:24;;;;;;;11.45;10.13;;;;;;;;;;2573843;23;20012;-94
2023/07/03 06:32:01;;;;;;;11.34;8.71;;;;;;;;;;2480960;23;10426110;-94
2023/07/03 06:33:12;;;;;;;8.80;7.70;;;;;;;;;;2577609;23;20653;-94
2023/07/03 06:34:20;;;;;;;11.27;9.95;;;;;;;;;;2569310;23;20379;-92
2023/07/03 06:35:43;;;;;;;14.35;12.93;;;;;;;;;;2571100;23;20513;-92
2023/07/03 06:36:46;;;;;;;11.60;10.15;;;;;;;;;;2586358;23;19992;-93
2023/07/03 06:37:52;;;;;;;14.15;9.95;;;;;;;;;;2569015;23;20020;-93
2023/07/03 06:39:04;;;;;;;12.35;7.80;;;;;;;;;;2569622;23;19993;-96
2023/07/03 06:40:48;;;;;;;10.43;8.38;;;;;;;;;;2575535;23;20002;-93
2023/07/03 06:41:49;;;;;;;10.95;8.18;;;;;;;;;;2565364;23;20001;-93
2023/07/03 06:42:51;;;;;;;10.50;8.23;;;;;;;;;;2573041;23;20338;-93
2023/07/03 06:43:56;;;;;;;9.48;7.68;;;;;;;;;;2568379;23;20014;-92
2023/07/03 06:44:56;;;;;;;11.38;8.25;;;;;;;;;;2569659;23;20303;-93
2023/07/03 06:45:57;;;;;;;9.88;8.68;;;;;;;;;;2569067;23;20016;-93
2023/07/03 06:46:58;;;;;;;10.32;8.10;;;;;;;;;;2556672;23;19993;-96
2023/07/03 06:48:02;;;;;;;12.70;8.10;;;;;;;;;;2557600;23;20001;-94
2023/07/03 06:49:12;;;;;;;;;;;;;;;;;;;;;
2023/07/03 06:50:13;;;;;;;;;;;;;;;;;;2576581;23;20571;-95
2023/07/03 06:51:44;;;;;;;12.45;8.85;;;;;;;;;;2587325;23;19930;-96
2023/07/03 06:52:46;;;;;;;10.73;9.30;;;;;;;;;;2569156;23;20011;-92
2023/07/03 06:55:34;;;;;;;11.13;8.82;;;;;;;;;;2553616;23;20003;-93
2023/07/03 06:56:45;;;;;;;11.35;9.48;;;;;;;;;;2582803;23;20054;-95
2023/07/03 06:58:26;;;;;;;13.52;10.68;;;;;;;;;;2569533;23;20100;-96